createdAt,value
2022-10-04T00:01:11.104Z,6.43
2022-10-04T00:03:44.849Z,4.40
2022-10-04T00:06:21.505Z,4.40
2022-10-04T00:08:55.075Z,5.30
2022-10-04T00:11:27.111Z,7.32
2022-10-04T00:16:31.210Z,6.95
2022-10-04T00:19:17.450Z,6.10
2022-10-04T00:22:12.648Z,4.97
2022-10-04T00:25:22.470Z,6.57
2022-10-04T00:28:17.901Z,5.68
2022-10-04T00:30:46.208Z,5.60
2022-10-04T00:33:38.411Z,4.82
2022-10-04T00:36:48.445Z,4.53
2022-10-04T00:39:43.239Z,4.43
2022-10-04T00:42:47.989Z,4.95
2022-10-04T00:45:40.451Z,4.68
2022-10-04T00:48:35.368Z,4.38
2022-10-04T00:51:11.887Z,4.50
2022-10-04T00:53:51.104Z,4.65
2022-10-04T00:56:25.907Z,4.65
2022-10-04T00:59:16.427Z,4.07
2022-10-04T01:01:48.799Z,4.50
2022-10-04T01:04:28.812Z,4.40
2022-10-04T01:07:00.089Z,5.15
2022-10-04T01:09:29.597Z,5.50
2022-10-04T01:12:04.748Z,5.43
2022-10-04T01:14:45.686Z,5.30
2022-10-04T01:17:13.816Z,5.68
2022-10-04T01:19:52.258Z,5.75
2022-10-04T01:22:41.352Z,6.00
2022-10-04T01:25:10.453Z,6.05
2022-10-04T01:27:43.679Z,6.93
2022-10-04T01:30:14.192Z,7.32
2022-10-04T01:32:45.049Z,7.50
2022-10-04T01:35:14.987Z,6.63
2022-10-04T01:37:44.484Z,6.88
2022-10-04T01:40:13.181Z,6.20
2022-10-04T01:42:46.643Z,6.28
2022-10-04T01:45:20.103Z,6.07
2022-10-04T01:47:54.282Z,5.55
2022-10-04T01:50:32.811Z,5.40
2022-10-04T01:53:11.636Z,5.85
2022-10-04T01:55:42.625Z,5.82
2022-10-04T01:58:15.593Z,7.80
2022-10-04T02:00:51.497Z,10.35
2022-10-04T02:03:25.426Z,7.60
2022-10-04T02:05:59.974Z,9.85
2022-10-04T02:08:32.975Z,6.90
2022-10-04T02:11:03.047Z,7.80
2022-10-04T02:13:38.107Z,7.43
2022-10-04T02:16:11.558Z,8.02
2022-10-04T02:18:41.822Z,8.07
2022-10-04T02:21:10.494Z,7.65
2022-10-04T02:23:42.105Z,7.85
2022-10-04T02:26:11.841Z,7.70
2022-10-04T02:28:40.542Z,6.35
2022-10-04T02:31:27.590Z,7.78
2022-10-04T02:33:59.469Z,6.35
2022-10-04T02:36:29.529Z,6.78
2022-10-04T02:39:03.827Z,6.65
2022-10-04T02:41:35.746Z,7.00
2022-10-04T02:44:11.266Z,7.35
2022-10-04T02:46:47.542Z,7.22
2022-10-04T02:49:25.503Z,7.28
2022-10-04T02:52:01.457Z,6.72
2022-10-04T02:54:37.115Z,7.30
2022-10-04T02:57:05.884Z,6.78
2022-10-04T02:59:35.629Z,6.35
2022-10-04T03:02:03.910Z,7.53
2022-10-04T03:04:38.463Z,6.18
2022-10-04T03:07:09.766Z,6.30
2022-10-04T03:09:41.151Z,6.43
2022-10-04T03:12:13.993Z,7.30
2022-10-04T03:14:42.287Z,6.57
2022-10-04T03:17:10.825Z,6.22
2022-10-04T03:19:39.891Z,6.78
2022-10-04T03:22:10.399Z,6.57
2022-10-04T03:24:46.983Z,6.78
2022-10-04T03:27:18.227Z,6.85
2022-10-04T03:29:46.794Z,6.57
2022-10-04T03:32:16.847Z,6.43
2022-10-04T03:34:57.146Z,6.88
2022-10-04T03:37:27.191Z,7.45
2022-10-04T03:39:58.281Z,5.97
2022-10-04T03:42:28.927Z,6.47
2022-10-04T03:45:01.952Z,6.82
2022-10-04T03:47:33.707Z,7.40
2022-10-04T03:50:06.493Z,6.25
2022-10-04T03:52:37.885Z,6.60
2022-10-04T03:55:09.601Z,6.63
2022-10-04T03:57:39.148Z,6.10
2022-10-04T04:00:08.508Z,5.97
2022-10-04T04:02:46.199Z,5.85
2022-10-04T04:05:20.930Z,6.35
2022-10-04T04:07:57.528Z,5.82
2022-10-04T04:10:30.622Z,6.15
2022-10-04T04:13:02.333Z,8.27
2022-10-04T04:15:32.571Z,5.95
2022-10-04T04:18:04.100Z,5.80
2022-10-04T04:20:35.115Z,5.85
2022-10-04T04:23:11.026Z,5.30
2022-10-04T04:25:43.312Z,6.82
2022-10-04T04:28:22.860Z,6.00
2022-10-04T04:30:54.559Z,5.88
2022-10-04T04:33:31.094Z,7.20
2022-10-04T04:36:06.456Z,8.82
2022-10-04T04:38:56.399Z,6.72
2022-10-04T04:41:27.973Z,5.80
2022-10-04T04:43:56.318Z,5.35
2022-10-04T04:46:27.495Z,6.60
2022-10-04T04:49:01.212Z,5.95
2022-10-04T04:51:31.425Z,7.63
2022-10-04T04:54:01.963Z,5.50
2022-10-04T04:56:32.389Z,5.72
2022-10-04T04:59:04.471Z,6.82
2022-10-04T05:01:36.147Z,5.95
2022-10-04T05:04:06.901Z,6.47
2022-10-04T05:06:36.417Z,6.65
2022-10-04T05:09:05.469Z,6.80
2022-10-04T05:11:39.844Z,6.30
2022-10-04T05:14:10.807Z,6.88
2022-10-04T05:16:44.249Z,6.68
2022-10-04T05:19:17.571Z,6.85
2022-10-04T05:21:48.426Z,5.85
2022-10-04T05:24:23.292Z,6.75
2022-10-04T05:26:55.158Z,6.95
2022-10-04T05:29:26.884Z,7.53
2022-10-04T05:32:04.288Z,6.53
2022-10-04T05:34:39.990Z,7.10
2022-10-04T05:37:20.683Z,6.43
2022-10-04T05:40:00.027Z,7.03
2022-10-04T05:42:38.598Z,6.72
2022-10-04T05:45:20.781Z,7.18
2022-10-04T05:50:20.854Z,7.50
2022-10-04T05:52:52.440Z,8.38
2022-10-04T05:55:28.752Z,8.20
2022-10-04T05:58:25.896Z,6.47
2022-10-04T06:01:18.755Z,9.52
2022-10-04T06:04:10.175Z,9.63
2022-10-04T06:06:42.345Z,8.53
2022-10-04T06:09:19.995Z,7.25
2022-10-04T06:12:02.281Z,5.57
2022-10-04T06:14:58.596Z,7.07
2022-10-04T06:17:40.715Z,5.95
2022-10-04T06:22:49.669Z,5.93
2022-10-04T06:25:27.487Z,5.30
2022-10-04T06:28:13.472Z,5.68
2022-10-04T06:30:57.997Z,5.28
2022-10-04T06:33:44.595Z,5.55
2022-10-04T06:36:34.682Z,5.47
2022-10-04T06:39:28.108Z,6.30
2022-10-04T06:42:15.667Z,6.03
2022-10-04T06:45:01.723Z,5.95
2022-10-04T06:47:46.601Z,5.78
2022-10-04T06:50:24.996Z,6.82
2022-10-04T06:53:24.566Z,6.00
2022-10-04T06:56:14.912Z,5.38
2022-10-04T06:59:19.416Z,5.82
2022-10-04T07:01:51.496Z,5.63
2022-10-04T07:04:49.941Z,5.78
2022-10-04T07:07:27.126Z,5.68
2022-10-04T07:10:01.238Z,5.43
2022-10-04T07:12:30.613Z,6.32
2022-10-04T07:15:03.735Z,6.63
2022-10-04T07:17:40.118Z,5.43
2022-10-04T07:20:21.722Z,6.88
2022-10-04T07:22:57.147Z,6.80
2022-10-04T07:25:30.594Z,5.82
2022-10-04T07:28:22.040Z,6.70
2022-10-04T07:30:53.985Z,6.28
2022-10-04T07:35:57.380Z,6.50
2022-10-04T07:38:30.508Z,6.90
2022-10-04T07:41:10.345Z,6.40
2022-10-04T07:43:49.027Z,6.57
2022-10-04T07:46:25.594Z,7.25
2022-10-04T07:48:54.383Z,6.28
2022-10-04T07:51:34.207Z,7.60
2022-10-04T07:54:10.335Z,6.70
2022-10-04T07:56:47.342Z,7.13
2022-10-04T07:59:33.220Z,6.65
2022-10-04T08:02:17.664Z,6.03
2022-10-04T08:04:54.319Z,6.30
2022-10-04T08:07:32.311Z,6.95
2022-10-04T08:10:08.409Z,7.20
2022-10-04T08:12:49.563Z,7.03
2022-10-04T08:15:36.075Z,7.35
2022-10-04T08:18:22.519Z,6.25
2022-10-04T08:20:57.916Z,6.15
2022-10-04T08:23:57.101Z,6.18
2022-10-04T08:26:46.304Z,5.72
2022-10-04T08:29:47.291Z,6.07
2022-10-04T08:32:27.577Z,5.85
2022-10-04T08:35:16.338Z,6.28
2022-10-04T08:38:00.371Z,5.88
2022-10-04T08:41:16.446Z,6.70
2022-10-04T08:44:17.098Z,5.75
2022-10-04T08:47:10.703Z,5.15
2022-10-04T08:50:22.907Z,6.10
2022-10-04T08:53:08.734Z,6.68
2022-10-04T08:55:58.442Z,5.40
2022-10-04T08:58:55.698Z,5.63
2022-10-04T09:01:53.574Z,5.25
2022-10-04T09:04:47.856Z,5.93
2022-10-04T09:07:46.293Z,5.18
2022-10-04T09:10:45.496Z,5.97
2022-10-04T09:13:34.451Z,5.32
2022-10-04T09:16:16.691Z,4.68
2022-10-04T09:19:00.367Z,5.10
2022-10-04T09:21:44.091Z,5.72
2022-10-04T09:24:59.843Z,5.85
2022-10-04T09:28:01.353Z,4.97
2022-10-04T09:30:43.627Z,5.00
2022-10-04T09:33:57.667Z,5.68
2022-10-04T09:36:52.617Z,5.10
2022-10-04T09:39:54.547Z,5.75
2022-10-04T09:42:40.989Z,4.75
2022-10-04T09:45:35.470Z,4.53
2022-10-04T09:48:25.372Z,5.97
2022-10-04T09:51:32.302Z,4.85
2022-10-04T09:54:30.475Z,5.18
2022-10-04T09:57:21.783Z,4.30
2022-10-04T10:00:23.338Z,4.77
2022-10-04T10:03:21.278Z,4.57
2022-10-04T10:06:12.296Z,4.13
2022-10-04T10:08:55.583Z,4.20
2022-10-04T10:11:49.652Z,3.45
2022-10-04T10:14:55.713Z,3.28
2022-10-04T10:17:37.953Z,3.78
2022-10-04T10:20:44.622Z,4.35
2022-10-04T10:23:49.059Z,4.00
2022-10-04T10:26:42.702Z,3.88
2022-10-04T10:29:37.166Z,3.42
2022-10-04T10:32:45.883Z,3.40
2022-10-04T10:35:43.372Z,3.25
2022-10-04T10:38:35.573Z,3.40
2022-10-04T10:44:03.369Z,2.80
2022-10-04T10:46:47.851Z,3.22
2022-10-04T10:49:37.811Z,3.10
2022-10-04T10:52:42.575Z,2.90
2022-10-04T10:55:30.948Z,2.30
2022-10-04T10:58:37.101Z,2.70
2022-10-04T11:01:23.806Z,2.47
2022-10-04T11:04:18.651Z,2.35
2022-10-04T11:07:16.415Z,3.40
2022-10-04T11:10:10.757Z,2.05
2022-10-04T11:13:08.299Z,2.40
2022-10-04T11:16:03.294Z,2.58
2022-10-04T11:19:04.763Z,2.22
2022-10-04T11:22:07.535Z,2.10
2022-10-04T11:25:17.827Z,2.00
2022-10-04T11:27:57.391Z,2.30
2022-10-04T11:30:29.852Z,2.40
2022-10-04T11:33:39.735Z,2.38
2022-10-04T11:36:29.470Z,2.30
2022-10-04T11:39:24.653Z,2.53
2022-10-04T11:41:57.708Z,2.47
2022-10-04T11:44:49.457Z,2.55
2022-10-04T11:47:36.081Z,2.88
2022-10-04T11:50:27.017Z,2.60
2022-10-04T11:53:25.871Z,2.50
2022-10-04T11:56:35.707Z,3.00
2022-10-04T11:59:19.633Z,2.80
2022-10-04T12:02:17.037Z,2.03
2022-10-04T12:05:21.170Z,2.03
2022-10-04T12:08:05.446Z,1.95
2022-10-04T12:10:38.466Z,2.33
2022-10-04T12:13:39.073Z,2.17
2022-10-04T12:16:36.344Z,1.90
2022-10-04T12:19:40.741Z,2.45
2022-10-04T12:22:43.754Z,2.95
2022-10-04T12:25:49.240Z,2.25
2022-10-04T12:28:44.245Z,2.20
2022-10-04T12:31:24.784Z,2.30
2022-10-04T12:33:59.800Z,2.28
2022-10-04T12:36:57.908Z,2.10
2022-10-04T12:40:14.542Z,1.70
2022-10-04T12:42:53.333Z,1.92
2022-10-04T12:45:50.246Z,2.40
2022-10-04T12:48:28.676Z,2.75
2022-10-04T12:51:08.256Z,2.00
2022-10-04T12:53:49.221Z,2.40
2022-10-04T12:56:32.110Z,2.00
2022-10-04T12:59:15.413Z,2.38
2022-10-04T13:01:52.976Z,2.75
2022-10-04T13:04:30.519Z,2.85
2022-10-04T13:07:15.973Z,2.97
2022-10-04T13:10:19.145Z,2.45
2022-10-04T13:13:20.343Z,2.78
2022-10-04T13:18:56.426Z,2.20
2022-10-04T13:21:52.890Z,2.55
2022-10-04T13:24:29.356Z,1.73
2022-10-04T13:27:03.482Z,2.50
2022-10-04T13:29:37.232Z,2.60
2022-10-04T13:32:14.494Z,2.20
2022-10-04T13:34:49.347Z,2.60
2022-10-04T13:37:31.478Z,2.60
2022-10-04T13:40:21.505Z,2.28
2022-10-04T13:43:22.641Z,2.25
2022-10-04T13:46:06.751Z,2.15
2022-10-04T13:48:49.656Z,2.65
2022-10-04T13:52:17.143Z,2.28
2022-10-04T13:55:13.798Z,2.30
2022-10-04T13:57:50.857Z,2.05
2022-10-04T14:00:36.023Z,2.13
2022-10-04T14:03:27.745Z,2.00
2022-10-04T14:06:36.551Z,1.73
2022-10-04T14:09:26.673Z,1.92
2022-10-04T14:12:54.858Z,2.40
2022-10-04T14:15:52.752Z,2.13
2022-10-04T14:18:55.800Z,1.95
2022-10-04T14:21:51.365Z,2.13
2022-10-04T14:25:06.810Z,2.15
2022-10-04T14:28:13.308Z,1.98
2022-10-04T14:30:56.627Z,2.55
2022-10-04T14:34:07.288Z,2.47
2022-10-04T14:37:03.699Z,2.13
2022-10-04T14:40:00.836Z,2.17
2022-10-04T14:42:52.183Z,3.28
2022-10-04T14:45:37.959Z,2.60
2022-10-04T14:48:38.854Z,2.28
2022-10-04T14:51:42.408Z,2.38
2022-10-04T14:54:16.942Z,2.67
2022-10-04T14:57:01.609Z,1.92
2022-10-04T14:59:53.787Z,2.13
2022-10-04T15:05:35.604Z,2.40
2022-10-04T15:08:39.303Z,2.22
2022-10-04T15:11:10.362Z,2.15
2022-10-04T15:13:50.592Z,2.13
2022-10-04T15:16:33.596Z,1.88
2022-10-04T15:19:09.568Z,1.98
2022-10-04T15:21:46.456Z,1.90
2022-10-04T15:24:32.687Z,1.92
2022-10-04T15:27:44.319Z,1.80
2022-10-04T15:30:20.916Z,1.90
2022-10-04T15:32:56.861Z,2.40
2022-10-04T15:35:36.223Z,2.25
2022-10-04T15:38:18.997Z,2.13
2022-10-04T15:41:02.075Z,1.88
2022-10-04T15:43:36.771Z,2.05
2022-10-04T15:46:41.207Z,1.95
2022-10-04T15:49:25.723Z,1.95
2022-10-04T15:52:41.595Z,2.78
2022-10-04T15:55:32.146Z,1.70
2022-10-04T15:58:34.316Z,1.92
2022-10-04T16:01:26.352Z,1.67
2022-10-04T16:06:49.051Z,1.77
2022-10-04T16:09:27.607Z,2.10
2022-10-04T16:12:06.286Z,1.90
2022-10-04T16:15:19.855Z,2.10
2022-10-04T16:18:08.510Z,1.50
2022-10-04T16:21:02.113Z,1.77
2022-10-04T16:23:36.862Z,1.80
2022-10-04T16:26:08.137Z,2.13
2022-10-04T16:29:00.732Z,1.98
2022-10-04T16:31:53.442Z,2.35
2022-10-04T16:34:48.190Z,2.10
2022-10-04T16:37:27.211Z,2.50
2022-10-04T16:40:00.970Z,2.25
2022-10-04T16:42:35.307Z,2.10
2022-10-04T16:45:41.193Z,2.40
2022-10-04T16:48:27.010Z,1.65
2022-10-04T16:51:27.875Z,1.48
2022-10-04T16:54:04.832Z,1.75
2022-10-04T16:56:53.922Z,2.15
2022-10-04T16:59:48.403Z,1.70
2022-10-04T17:02:46.895Z,2.28
2022-10-04T17:05:59.511Z,2.25
2022-10-04T17:08:53.268Z,2.88
2022-10-04T17:11:44.222Z,2.38
2022-10-04T17:14:46.378Z,2.75
2022-10-04T17:17:24.278Z,3.17
2022-10-04T17:19:56.930Z,2.90
2022-10-04T17:22:39.371Z,2.60
2022-10-04T17:25:23.363Z,4.18
2022-10-04T17:27:54.945Z,2.83
2022-10-04T17:30:25.873Z,4.38
2022-10-04T17:33:08.936Z,3.95
2022-10-04T17:35:58.446Z,9.57
2022-10-04T17:38:36.351Z,18.25
2022-10-04T17:41:14.245Z,19.52
2022-10-04T17:44:01.347Z,10.57
2022-10-04T17:46:38.023Z,6.35
2022-10-04T17:49:37.361Z,11.20
2022-10-04T17:52:36.744Z,15.40
2022-10-04T17:55:19.683Z,32.92
2022-10-04T17:57:52.711Z,24.40
2022-10-04T18:00:23.788Z,10.95
2022-10-04T18:03:12.888Z,7.00
2022-10-04T18:05:59.246Z,13.32
2022-10-04T18:08:41.357Z,13.98
2022-10-04T18:13:49.726Z,8.10
2022-10-04T18:16:25.008Z,5.22
2022-10-04T18:18:53.212Z,10.30
2022-10-04T18:21:27.395Z,43.97
2022-10-04T18:24:02.309Z,36.25
2022-10-04T18:26:33.663Z,28.77
2022-10-04T18:29:03.539Z,28.80
2022-10-04T18:31:36.878Z,24.27
2022-10-04T18:34:19.575Z,19.15
2022-10-04T18:37:05.512Z,13.63
2022-10-04T18:39:45.500Z,10.63
2022-10-04T18:42:21.532Z,8.27
2022-10-04T18:44:59.158Z,7.97
2022-10-04T18:47:34.637Z,9.45
2022-10-04T18:50:14.750Z,10.68
2022-10-04T18:52:57.540Z,11.10
2022-10-04T18:55:34.540Z,11.57
2022-10-04T18:58:28.640Z,9.95
2022-10-04T19:01:25.603Z,9.65
2022-10-04T19:03:59.557Z,8.93
2022-10-04T19:06:36.553Z,8.77
2022-10-04T19:09:23.219Z,8.95
2022-10-04T19:11:57.380Z,8.48
2022-10-04T19:14:34.920Z,10.60
2022-10-04T19:17:13.480Z,8.27
2022-10-04T19:19:48.198Z,9.48
2022-10-04T19:22:29.153Z,10.63
2022-10-04T19:25:19.451Z,12.10
2022-10-04T19:27:51.457Z,11.13
2022-10-04T19:30:22.243Z,8.88
2022-10-04T19:33:11.728Z,7.82
2022-10-04T19:35:57.719Z,5.90
2022-10-04T19:38:57.729Z,5.93
2022-10-04T19:41:44.490Z,6.63
2022-10-04T19:44:24.845Z,7.07
2022-10-04T19:47:01.773Z,6.13
2022-10-04T19:49:42.999Z,5.70
2022-10-04T19:52:25.007Z,5.77
2022-10-04T19:57:38.191Z,4.82
2022-10-04T20:00:22.745Z,4.50
2022-10-04T20:02:53.662Z,4.18
2022-10-04T20:05:29.596Z,4.45
2022-10-04T20:08:12.624Z,4.03
2022-10-04T20:10:41.393Z,4.00
2022-10-04T20:13:26.456Z,4.97
2022-10-04T20:15:56.949Z,4.50
2022-10-04T20:18:58.655Z,4.70
2022-10-04T20:21:34.879Z,4.43
2022-10-04T20:24:04.981Z,4.93
2022-10-04T20:26:56.008Z,5.03
2022-10-04T20:30:06.878Z,4.60
2022-10-04T20:32:55.856Z,4.53
2022-10-04T20:36:07.020Z,5.32
2022-10-04T20:38:52.322Z,6.22
2022-10-04T20:42:05.139Z,4.50
2022-10-04T20:44:54.182Z,4.40
2022-10-04T20:47:47.729Z,4.75
2022-10-04T20:50:29.536Z,4.78
2022-10-04T20:53:01.063Z,4.78
2022-10-04T20:55:31.146Z,5.05
2022-10-04T20:58:03.972Z,4.97
2022-10-04T21:00:35.408Z,5.15
2022-10-04T21:03:17.826Z,5.05
2022-10-04T21:06:01.143Z,4.45
2022-10-04T21:08:30.062Z,4.40
2022-10-04T21:11:20.025Z,4.38
2022-10-04T21:13:54.522Z,3.90
2022-10-04T21:16:50.899Z,3.60
2022-10-04T21:19:46.597Z,4.55
2022-10-04T21:22:38.401Z,4.30
2022-10-04T21:25:28.253Z,3.88
2022-10-04T21:28:16.447Z,4.28
2022-10-04T21:30:44.594Z,4.38
2022-10-04T21:33:12.662Z,3.88
2022-10-04T21:35:40.825Z,3.90
2022-10-04T21:38:10.862Z,3.88
2022-10-04T21:40:38.946Z,4.90
2022-10-04T21:43:07.086Z,7.68
2022-10-04T21:45:35.332Z,7.65
2022-10-04T21:48:03.437Z,4.88
2022-10-04T21:50:31.512Z,4.07
2022-10-04T21:52:59.815Z,5.65
2022-10-04T21:55:29.301Z,6.72
2022-10-04T21:57:57.377Z,4.82
2022-10-04T22:00:25.468Z,4.05
2022-10-04T22:02:53.625Z,3.97
2022-10-04T22:05:21.985Z,3.53
2022-10-04T22:07:50.047Z,4.07
2022-10-04T22:10:19.003Z,3.80
2022-10-04T22:12:48.498Z,3.42
2022-10-04T22:15:16.685Z,4.03
2022-10-04T22:17:44.754Z,3.60
2022-10-04T22:20:12.848Z,3.70
2022-10-04T22:22:40.959Z,4.40
2022-10-04T22:25:16.262Z,3.30
2022-10-04T22:27:44.422Z,3.30
2022-10-04T22:30:24.009Z,3.47
2022-10-04T22:32:54.890Z,3.08
2022-10-04T22:35:23.356Z,3.30
2022-10-04T22:37:52.124Z,2.40
2022-10-04T22:40:22.724Z,2.42
2022-10-04T22:42:53.109Z,2.63
2022-10-04T22:45:25.063Z,2.45
2022-10-04T22:50:39.444Z,2.40
2022-10-04T22:53:14.730Z,2.97
2022-10-04T22:55:42.915Z,3.10
2022-10-04T22:58:14.103Z,3.42
2022-10-04T23:00:44.558Z,2.88
2022-10-04T23:03:24.085Z,2.90
2022-10-04T23:05:52.208Z,2.75
2022-10-04T23:08:20.286Z,3.38
2022-10-04T23:10:48.687Z,3.30
2022-10-04T23:13:19.225Z,3.20
2022-10-04T23:15:50.760Z,3.30
2022-10-04T23:18:20.141Z,3.47
2022-10-04T23:20:52.847Z,2.90
2022-10-04T23:23:22.213Z,3.28
2022-10-04T23:25:51.047Z,3.05
2022-10-04T23:28:20.449Z,3.33
2022-10-04T23:31:00.961Z,3.53
2022-10-04T23:33:29.076Z,3.38
2022-10-04T23:35:57.583Z,3.97
2022-10-04T23:38:26.226Z,3.45
2022-10-04T23:40:54.306Z,3.28
2022-10-04T23:43:25.982Z,3.60
2022-10-04T23:45:57.434Z,3.40
2022-10-04T23:48:28.074Z,3.35
2022-10-04T23:50:59.797Z,4.03
2022-10-04T23:53:29.707Z,3.88
2022-10-04T23:55:59.199Z,3.50
2022-10-04T23:58:35.127Z,3.38
